sensor_id;sensor_type;location;lat;lon;timestamp;pressure;altitude;pressure_sealevel;temperature;humidity
45941;BME280;31858;46.008;8.978;2024-02-23T00:05:28;92975.97;;;5.48;100.00
45941;BME280;31858;46.008;8.978;2024-02-23T00:15:31;92990.69;;;5.38;100.00
45941;BME280;31858;46.008;8.978;2024-02-23T00:25:32;92975.59;;;5.35;100.00
45941;BME280;31858;46.008;8.978;2024-02-23T00:35:35;92978.59;;;5.34;100.00
45941;BME280;31858;46.008;8.978;2024-02-23T00:45:37;92980.88;;;5.35;100.00
45941;BME280;31858;46.008;8.978;2024-02-23T00:55:40;92960.88;;;5.34;100.00
45941;BME280;31858;46.008;8.978;2024-02-23T01:05:41;92942.75;;;5.33;100.00
45941;BME280;31858;46.008;8.978;2024-02-23T01:15:45;92930.69;;;5.32;100.00
45941;BME280;31858;46.008;8.978;2024-02-23T01:25:46;92883.53;;;5.16;100.00
45941;BME280;31858;46.008;8.978;2024-02-23T01:35:49;92867.31;;;5.00;100.00
45941;BME280;31858;46.008;8.978;2024-02-23T01:45:51;92854.47;;;4.84;100.00
45941;BME280;31858;46.008;8.978;2024-02-23T01:55:54;92862.38;;;4.73;100.00
45941;BME280;31858;46.008;8.978;2024-02-23T02:05:57;92872.56;;;4.75;100.00
45941;BME280;31858;46.008;8.978;2024-02-23T02:16:00;92860.88;;;4.83;100.00
45941;BME280;31858;46.008;8.978;2024-02-23T02:26:03;92838.25;;;4.85;100.00
45941;BME280;31858;46.008;8.978;2024-02-23T02:36:06;92824.69;;;4.80;100.00
45941;BME280;31858;46.008;8.978;2024-02-23T02:46:08;92816.00;;;4.76;100.00
45941;BME280;31858;46.008;8.978;2024-02-23T02:56:11;92803.19;;;4.71;100.00
45941;BME280;31858;46.008;8.978;2024-02-23T03:06:12;92793.75;;;4.66;100.00
45941;BME280;31858;46.008;8.978;2024-02-23T03:16:16;92784.31;;;4.51;100.00
45941;BME280;31858;46.008;8.978;2024-02-23T03:26:17;92773.03;;;4.50;100.00
45941;BME280;31858;46.008;8.978;2024-02-23T03:36:20;92782.81;;;4.53;100.00
45941;BME280;31858;46.008;8.978;2024-02-23T03:46:22;92756.44;;;4.39;100.00
45941;BME280;31858;46.008;8.978;2024-02-23T03:56:25;92766.59;;;4.37;100.00
45941;BME280;31858;46.008;8.978;2024-02-23T04:06:26;92781.31;;;4.45;100.00
45941;BME280;31858;46.008;8.978;2024-02-23T04:16:29;92781.31;;;4.49;100.00
45941;BME280;31858;46.008;8.978;2024-02-23T04:26:31;92763.22;;;4.47;100.00
45941;BME280;31858;46.008;8.978;2024-02-23T04:36:34;92728.53;;;4.35;100.00
45941;BME280;31858;46.008;8.978;2024-02-23T04:46:36;92688.63;;;4.40;100.00
45941;BME280;31858;46.008;8.978;2024-02-23T04:56:39;92674.28;;;4.16;100.00
45941;BME280;31858;46.008;8.978;2024-02-23T05:06:41;92688.22;;;4.13;100.00
45941;BME280;31858;46.008;8.978;2024-02-23T05:16:45;92688.59;;;4.18;100.00
45941;BME280;31858;46.008;8.978;2024-02-23T05:26:46;92712.69;;;4.13;100.00
45941;BME280;31858;46.008;8.978;2024-02-23T05:36:49;92739.81;;;4.14;100.00
45941;BME280;31858;46.008;8.978;2024-02-23T05:46:52;92734.53;;;4.17;100.00
45941;BME280;31858;46.008;8.978;2024-02-23T05:56:54;92702.53;;;4.19;100.00
45941;BME280;31858;46.008;8.978;2024-02-23T06:06:56;92696.13;;;4.13;100.00
45941;BME280;31858;46.008;8.978;2024-02-23T06:16:59;92644.53;;;4.08;100.00
45941;BME280;31858;46.008;8.978;2024-02-23T06:27:00;92614.03;;;4.11;100.00
45941;BME280;31858;46.008;8.978;2024-02-23T06:37:04;92643.41;;;4.06;100.00
45941;BME280;31858;46.008;8.978;2024-02-23T06:47:06;92651.69;;;4.01;100.00
45941;BME280;31858;46.008;8.978;2024-02-23T06:57:09;92652.44;;;4.05;100.00
45941;BME280;31858;46.008;8.978;2024-02-23T07:07:11;92676.16;;;4.01;100.00
45941;BME280;31858;46.008;8.978;2024-02-23T07:17:16;92686.31;;;4.06;100.00
45941;BME280;31858;46.008;8.978;2024-02-23T07:27:17;92690.47;;;4.11;100.00
45941;BME280;31858;46.008;8.978;2024-02-23T07:37:20;92708.56;;;4.12;100.00
45941;BME280;31858;46.008;8.978;2024-02-23T07:47:22;92719.09;;;4.12;100.00
45941;BME280;31858;46.008;8.978;2024-02-23T07:57:25;92709.31;;;4.13;100.00
45941;BME280;31858;46.008;8.978;2024-02-23T08:07:26;92687.09;;;4.07;100.00
45941;BME280;31858;46.008;8.978;2024-02-23T08:17:30;92687.06;;;4.00;100.00
45941;BME280;31858;46.008;8.978;2024-02-23T08:27:31;92707.03;;;4.04;100.00
45941;BME280;31858;46.008;8.978;2024-02-23T08:37:34;92697.22;;;4.01;100.00
45941;BME280;31858;46.008;8.978;2024-02-23T08:47:36;92687.47;;;4.05;100.00
45941;BME280;31858;46.008;8.978;2024-02-23T08:57:39;92714.19;;;4.07;100.00
45941;BME280;31858;46.008;8.978;2024-02-23T09:07:41;92727.00;;;4.09;100.00
45941;BME280;31858;46.008;8.978;2024-02-23T09:17:44;92717.19;;;4.06;100.00
45941;BME280;31858;46.008;8.978;2024-02-23T09:27:45;92704.41;;;4.04;100.00
45941;BME280;31858;46.008;8.978;2024-02-23T09:37:48;92713.81;;;4.12;100.00
45941;BME280;31858;46.008;8.978;2024-02-23T09:47:50;92719.09;;;4.05;100.00
45941;BME280;31858;46.008;8.978;2024-02-23T09:57:57;92717.97;;;4.13;100.00
45941;BME280;31858;46.008;8.978;2024-02-23T10:08:00;92707.81;;;4.19;100.00
45941;BME280;31858;46.008;8.978;2024-02-23T10:18:05;92700.66;;;4.23;100.00
45941;BME280;31858;46.008;8.978;2024-02-23T10:28:06;92678.81;;;4.30;100.00
45941;BME280;31858;46.008;8.978;2024-02-23T10:38:12;92697.66;;;4.35;100.00
45941;BME280;31858;46.008;8.978;2024-02-23T10:48:17;92707.47;;;4.38;100.00
45941;BME280;31858;46.008;8.978;2024-02-23T10:58:21;92696.91;;;4.42;100.00
45941;BME280;31858;46.008;8.978;2024-02-23T11:08:23;92708.59;;;4.48;100.00
45941;BME280;31858;46.008;8.978;2024-02-23T11:18:29;92706.72;;;4.45;100.00
45941;BME280;31858;46.008;8.978;2024-02-23T11:28:32;92699.56;;;4.52;100.00
45941;BME280;31858;46.008;8.978;2024-02-23T11:38:35;92698.03;;;4.66;100.00
45941;BME280;31858;46.008;8.978;2024-02-23T11:48:37;92683.34;;;4.72;100.00
45941;BME280;31858;46.008;8.978;2024-02-23T11:58:40;92672.78;;;4.79;100.00
45941;BME280;31858;46.008;8.978;2024-02-23T12:08:42;92669.38;;;4.82;100.00
45941;BME280;31858;46.008;8.978;2024-02-23T12:18:52;92665.22;;;4.88;100.00
45941;BME280;31858;46.008;8.978;2024-02-23T12:29:00;92633.91;;;5.01;100.00
45941;BME280;31858;46.008;8.978;2024-02-23T12:39:04;92604.00;;;5.21;100.00
45941;BME280;31858;46.008;8.978;2024-02-23T12:49:06;92578.34;;;5.25;100.00
45941;BME280;31858;46.008;8.978;2024-02-23T12:59:08;92599.34;;;5.50;100.00
45941;BME280;31858;46.008;8.978;2024-02-23T13:09:10;92595.53;;;5.58;100.00
45941;BME280;31858;46.008;8.978;2024-02-23T13:19:14;92565.66;;;5.69;100.00
45941;BME280;31858;46.008;8.978;2024-02-23T13:29:15;92570.19;;;6.27;100.00
45941;BME280;31858;46.008;8.978;2024-02-23T13:39:18;92559.59;;;6.27;100.00
45941;BME280;31858;46.008;8.978;2024-02-23T13:49:20;92541.00;;;6.38;100.00
45941;BME280;31858;46.008;8.978;2024-02-23T13:59:23;92512.41;;;6.60;100.00
45941;BME280;31858;46.008;8.978;2024-02-23T14:09:25;92518.47;;;6.57;100.00
45941;BME280;31858;46.008;8.978;2024-02-23T14:19:27;92501.88;;;6.52;100.00
45941;BME280;31858;46.008;8.978;2024-02-23T14:29:29;92493.59;;;6.84;100.00
45941;BME280;31858;46.008;8.978;2024-02-23T14:39:32;92491.25;;;6.90;100.00
45941;BME280;31858;46.008;8.978;2024-02-23T14:49:34;92488.75;;;6.79;100.00
45941;BME280;31858;46.008;8.978;2024-02-23T14:59:37;92470.47;;;6.88;100.00
45941;BME280;31858;46.008;8.978;2024-02-23T15:09:46;92473.91;;;6.85;100.00
45941;BME280;31858;46.008;8.978;2024-02-23T15:19:49;92462.19;;;6.86;100.00
45941;BME280;31858;46.008;8.978;2024-02-23T15:29:51;92476.34;;;7.03;100.00
45941;BME280;31858;46.008;8.978;2024-02-23T15:39:54;92490.66;;;7.09;100.00
45941;BME280;31858;46.008;8.978;2024-02-23T15:49:55;92498.72;;;7.29;100.00
45941;BME280;31858;46.008;8.978;2024-02-23T15:59:58;92502.22;;;7.49;100.00
45941;BME280;31858;46.008;8.978;2024-02-23T16:10:00;92509.78;;;7.51;100.00
45941;BME280;31858;46.008;8.978;2024-02-23T16:20:04;92499.81;;;7.59;100.00
45941;BME280;31858;46.008;8.978;2024-02-23T16:30:07;92510.66;;;7.68;100.00
45941;BME280;31858;46.008;8.978;2024-02-23T16:40:19;92519.28;;;7.48;100.00
45941;BME280;31858;46.008;8.978;2024-02-23T16:50:23;92525.91;;;7.03;100.00
45941;BME280;31858;46.008;8.978;2024-02-23T17:00:26;92537.66;;;6.68;100.00
45941;BME280;31858;46.008;8.978;2024-02-23T17:10:28;92548.97;;;6.34;100.00
45941;BME280;31858;46.008;8.978;2024-02-23T17:20:31;92570.72;;;6.08;100.00
45941;BME280;31858;46.008;8.978;2024-02-23T17:30:32;92583.50;;;6.13;100.00
45941;BME280;31858;46.008;8.978;2024-02-23T17:40:35;92604.09;;;5.80;100.00
45941;BME280;31858;46.008;8.978;2024-02-23T17:50:37;92615.59;;;5.45;100.00
45941;BME280;31858;46.008;8.978;2024-02-23T18:00:40;92644.34;;;5.33;100.00
45941;BME280;31858;46.008;8.978;2024-02-23T18:10:42;92658.78;;;5.07;100.00
45941;BME280;31858;46.008;8.978;2024-02-23T18:20:45;92676.53;;;4.96;100.00
45941;BME280;31858;46.008;8.978;2024-02-23T18:30:46;92662.19;;;5.00;100.00
45941;BME280;31858;46.008;8.978;2024-02-23T18:40:49;92682.59;;;4.75;100.00
45941;BME280;31858;46.008;8.978;2024-02-23T18:50:51;92681.09;;;4.59;100.00
45941;BME280;31858;46.008;8.978;2024-02-23T19:00:54;92692.00;;;4.44;100.00
45941;BME280;31858;46.008;8.978;2024-02-23T19:10:57;92701.03;;;4.32;100.00
45941;BME280;31858;46.008;8.978;2024-02-23T19:20:59;92718.72;;;4.10;100.00
45941;BME280;31858;46.008;8.978;2024-02-23T19:31:01;92708.56;;;4.23;100.00
45941;BME280;31858;46.008;8.978;2024-02-23T19:41:04;92723.97;;;4.10;100.00
45941;BME280;31858;46.008;8.978;2024-02-23T19:51:06;92740.53;;;4.00;100.00
45941;BME280;31858;46.008;8.978;2024-02-23T20:01:09;92757.13;;;4.08;100.00
45941;BME280;31858;46.008;8.978;2024-02-23T20:11:11;92783.44;;;3.97;100.00
45941;BME280;31858;46.008;8.978;2024-02-23T20:21:14;92781.94;;;4.00;100.00
45941;BME280;31858;46.008;8.978;2024-02-23T20:31:15;92796.59;;;3.97;100.00
45941;BME280;31858;46.008;8.978;2024-02-23T20:41:18;92801.50;;;3.99;100.00
45941;BME280;31858;46.008;8.978;2024-02-23T20:51:21;92801.47;;;3.91;100.00
45941;BME280;31858;46.008;8.978;2024-02-23T21:01:24;92797.72;;;3.85;100.00
45941;BME280;31858;46.008;8.978;2024-02-23T21:11:26;92803.34;;;3.84;100.00
45941;BME280;31858;46.008;8.978;2024-02-23T21:21:29;92813.13;;;3.76;100.00
45941;BME280;31858;46.008;8.978;2024-02-23T21:31:32;92816.78;;;3.57;100.00
45941;BME280;31858;46.008;8.978;2024-02-23T21:41:35;92819.38;;;3.50;100.00
45941;BME280;31858;46.008;8.978;2024-02-23T21:51:36;92830.19;;;3.35;100.00
45941;BME280;31858;46.008;8.978;2024-02-23T22:01:39;92831.19;;;3.19;100.00
45941;BME280;31858;46.008;8.978;2024-02-23T22:11:41;92847.09;;;3.34;100.00
45941;BME280;31858;46.008;8.978;2024-02-23T22:21:44;92847.16;;;3.44;100.00
45941;BME280;31858;46.008;8.978;2024-02-23T22:31:46;92859.88;;;3.32;100.00
45941;BME280;31858;46.008;8.978;2024-02-23T22:41:49;92856.41;;;3.20;100.00
45941;BME280;31858;46.008;8.978;2024-02-23T22:51:50;92856.75;;;3.19;100.00
45941;BME280;31858;46.008;8.978;2024-02-23T23:01:53;92869.53;;;3.17;100.00
45941;BME280;31858;46.008;8.978;2024-02-23T23:11:55;92881.19;;;3.16;100.00
45941;BME280;31858;46.008;8.978;2024-02-23T23:21:58;92903.72;;;3.13;100.00
45941;BME280;31858;46.008;8.978;2024-02-23T23:31:59;92902.09;;;3.02;100.00
45941;BME280;31858;46.008;8.978;2024-02-23T23:42:02;92914.03;;;2.92;100.00
45941;BME280;31858;46.008;8.978;2024-02-23T23:52:04;92925.69;;;2.91;100.00
